createdAt,value
2019-04-22T00:00:36.132Z,1009.14
2019-04-22T00:01:16.394Z,1009.11
2019-04-22T00:01:43.599Z,1009.11
2019-04-22T00:02:18.897Z,1009.12
2019-04-22T00:02:58.299Z,1009.08
2019-04-22T00:03:39.105Z,1009.11
2019-04-22T00:04:11.078Z,1009.09
2019-04-22T00:04:51.087Z,1009.06
2019-04-22T00:05:36.783Z,1009.08
2019-04-22T00:06:13.014Z,1009.08
2019-04-22T00:06:49.958Z,1009.04
2019-04-22T00:07:22.768Z,1009.09
2019-04-22T00:08:05.141Z,1009.03
2019-04-22T00:08:37.660Z,1009.05
2019-04-22T00:09:11.213Z,1009.01
2019-04-22T00:09:54.855Z,1009.04
2019-04-22T00:10:26.331Z,1009.04
2019-04-22T00:11:06.374Z,1008.99
2019-04-22T00:12:16.463Z,1008.98
2019-04-22T00:12:46.897Z,1009.01
2019-04-22T00:13:26.539Z,1008.95
2019-04-22T00:13:58.111Z,1009.01
2019-04-22T00:14:28.421Z,1008.97
2019-04-22T00:15:39.457Z,1008.96
2019-04-22T00:16:19.506Z,1008.97
2019-04-22T00:16:56.057Z,1008.93
2019-04-22T00:17:41.743Z,1008.92
2019-04-22T00:18:11.607Z,1008.93
2019-04-22T00:18:56.378Z,1008.91
2019-04-22T00:19:22.693Z,1008.92
2019-04-22T00:19:54.274Z,1008.95
2019-04-22T00:20:22.679Z,1008.93
2019-04-22T00:21:02.271Z,1008.89
2019-04-22T00:22:46.246Z,1008.89
2019-04-22T00:23:19.863Z,1008.89
2019-04-22T00:24:30.749Z,1008.85
2019-04-22T00:25:08.377Z,1008.85
2019-04-22T00:25:52.890Z,1008.84
2019-04-22T00:26:59.577Z,1008.81
2019-04-22T00:27:34.326Z,1008.82
2019-04-22T00:28:11.197Z,1008.80
2019-04-22T00:28:44.012Z,1008.81
2019-04-22T00:29:37.295Z,1008.80
2019-04-22T00:30:02.501Z,1008.79
2019-04-22T00:30:20.877Z,1008.80
2019-04-22T00:31:03.071Z,1008.76
2019-04-22T00:31:37.538Z,1008.79
2019-04-22T00:32:02.066Z,1008.78
2019-04-22T00:32:42.099Z,1008.76
2019-04-22T00:33:25.554Z,1008.76
2019-04-22T00:33:57.718Z,1008.75
2019-04-22T00:34:30.192Z,1008.72
2019-04-22T00:35:09.969Z,1008.70
2019-04-22T00:35:44.380Z,1008.74
2019-04-22T00:36:16.398Z,1008.73
2019-04-22T00:37:17.229Z,1008.67
2019-04-22T00:37:54.053Z,1008.69
2019-04-22T00:38:23.783Z,1008.65
2019-04-22T00:38:59.013Z,1008.64
2019-04-22T00:39:35.938Z,1008.70
2019-04-22T00:40:14.304Z,1008.65
2019-04-22T00:40:44.685Z,1008.63
2019-04-22T00:41:26.271Z,1008.64
2019-04-22T00:41:58.240Z,1008.65
2019-04-22T00:42:39.159Z,1008.64
2019-04-22T00:43:06.786Z,1008.63
2019-04-22T00:43:53.053Z,1008.62
2019-04-22T00:44:23.719Z,1008.63
2019-04-22T00:44:57.848Z,1008.62
2019-04-22T00:45:33.134Z,1008.63
2019-04-22T00:46:03.976Z,1008.64
2019-04-22T00:46:38.358Z,1008.62
2019-04-22T00:47:21.227Z,1008.60
2019-04-22T00:47:46.158Z,1008.61
2019-04-22T00:48:27.837Z,1008.60
2019-04-22T00:49:46.489Z,1008.58
2019-04-22T00:50:06.779Z,1008.58
2019-04-22T00:50:19.029Z,1008.60
2019-04-22T00:50:55.116Z,1008.60
2019-04-22T00:51:22.849Z,1008.59
2019-04-22T00:52:03.726Z,1008.60
2019-04-22T00:52:33.921Z,1008.60
2019-04-22T00:53:11.962Z,1008.58
2019-04-22T00:53:41.720Z,1008.58
2019-04-22T00:54:17.081Z,1008.57
2019-04-22T00:54:59.495Z,1008.54
2019-04-22T00:55:32.614Z,1008.59
2019-04-22T00:56:05.617Z,1008.56
2019-04-22T00:56:45.508Z,1008.53
2019-04-22T00:57:19.992Z,1008.55
2019-04-22T00:57:46.462Z,1008.54
2019-04-22T00:58:26.109Z,1008.53
2019-04-22T00:58:59.074Z,1008.52
2019-04-22T00:59:37.414Z,1008.56
2019-04-22T01:00:11.565Z,1008.56
2019-04-22T01:00:44.355Z,1008.56
2019-04-22T01:02:00.917Z,1008.54
2019-04-22T01:02:34.699Z,1008.53
2019-04-22T01:03:16.161Z,1008.50
2019-04-22T01:03:52.783Z,1008.48
2019-04-22T01:04:27.560Z,1008.48
2019-04-22T01:04:56.001Z,1008.48
2019-04-22T01:05:34.172Z,1008.52
2019-04-22T01:06:14.833Z,1008.46
2019-04-22T01:06:38.593Z,1008.45
2019-04-22T01:07:17.724Z,1008.47
2019-04-22T01:07:51.394Z,1008.45
2019-04-22T01:08:35.240Z,1008.44
2019-04-22T01:09:05.805Z,1008.45
2019-04-22T01:09:39.564Z,1008.43
2019-04-22T01:10:31.864Z,1008.43
2019-04-22T01:10:54.920Z,1008.43
2019-04-22T01:12:04.712Z,1008.44
2019-04-22T01:12:31.915Z,1008.43
2019-04-22T01:13:12.485Z,1008.45
2019-04-22T01:13:46.995Z,1008.45
2019-04-22T01:14:21.698Z,1008.44
2019-04-22T01:14:51.927Z,1008.43
2019-04-22T01:15:34.439Z,1008.46
2019-04-22T01:16:15.322Z,1008.44
2019-04-22T01:16:43.167Z,1008.40
2019-04-22T01:17:24.439Z,1008.44
2019-04-22T01:17:52.645Z,1008.39
2019-04-22T01:18:32.638Z,1008.40
2019-04-22T01:19:00.038Z,1008.40
2019-04-22T01:19:45.125Z,1008.37
2019-04-22T01:20:29.369Z,1008.39
2019-04-22T01:21:28.775Z,1008.38
2019-04-22T01:21:58.550Z,1008.36
2019-04-22T01:22:33.008Z,1008.38
2019-04-22T01:23:14.753Z,1008.37
2019-04-22T01:23:41.094Z,1008.35
2019-04-22T01:24:17.535Z,1008.33
2019-04-22T01:24:57.855Z,1008.34
2019-04-22T01:25:34.145Z,1008.30
2019-04-22T01:26:01.150Z,1008.31
2019-04-22T01:26:34.563Z,1008.30
2019-04-22T01:27:11.586Z,1008.27
2019-04-22T01:27:44.855Z,1008.31
2019-04-22T01:28:21.758Z,1008.27
2019-04-22T01:28:53.919Z,1008.24
2019-04-22T01:29:30.771Z,1008.24
2019-04-22T01:30:05.788Z,1008.27
2019-04-22T01:30:36.156Z,1008.27
2019-04-22T01:31:08.324Z,1008.25
2019-04-22T01:31:39.985Z,1008.24
2019-04-22T01:32:21.656Z,1008.22
2019-04-22T01:32:51.031Z,1008.24
2019-04-22T01:33:32.499Z,1008.20
2019-04-22T01:34:11.425Z,1008.18
2019-04-22T01:34:46.086Z,1008.20
2019-04-22T01:35:24.650Z,1008.15
2019-04-22T01:36:06.822Z,1008.17
2019-04-22T01:36:45.687Z,1008.18
2019-04-22T01:37:14.151Z,1008.19
2019-04-22T01:37:52.119Z,1008.13
2019-04-22T01:38:23.341Z,1008.16
2019-04-22T01:39:07.203Z,1008.15
2019-04-22T01:39:43.512Z,1008.14
2019-04-22T01:40:21.413Z,1008.16
2019-04-22T01:40:46.434Z,1008.10
2019-04-22T01:41:35.840Z,1008.12
2019-04-22T01:42:06.109Z,1008.12
2019-04-22T01:42:39.456Z,1008.11
2019-04-22T01:43:18.644Z,1008.12
2019-04-22T01:43:58.706Z,1008.14
2019-04-22T01:44:33.356Z,1008.11
2019-04-22T01:44:56.967Z,1008.09
2019-04-22T01:45:41.421Z,1008.10
2019-04-22T01:46:21.371Z,1008.11
2019-04-22T01:46:49.443Z,1008.08
2019-04-22T01:47:30.237Z,1008.06
2019-04-22T01:48:00.877Z,1008.10
2019-04-22T01:48:36.620Z,1008.05
2019-04-22T01:49:08.724Z,1008.11
2019-04-22T01:49:49.516Z,1008.06
2019-04-22T01:50:21.454Z,1008.04
2019-04-22T01:50:54.755Z,1008.08
2019-04-22T01:51:45.514Z,1008.03
2019-04-22T01:52:05.080Z,1008.04
2019-04-22T01:52:47.240Z,1008.06
2019-04-22T01:53:23.581Z,1008.05
2019-04-22T01:54:00.501Z,1008.01
2019-04-22T01:54:38.292Z,1008.04
2019-04-22T01:55:14.043Z,1008.01
2019-04-22T01:55:36.922Z,1008.02
2019-04-22T01:56:15.850Z,1008.03
2019-04-22T01:57:22.887Z,1008.05
2019-04-22T01:57:53.337Z,1008.01
2019-04-22T01:58:30.708Z,1007.98
2019-04-22T01:59:06.334Z,1008.02
2019-04-22T01:59:41.673Z,1008.03
2019-04-22T02:00:16.414Z,1007.99
2019-04-22T02:01:18.487Z,1007.99
2019-04-22T02:01:37.667Z,1007.97
2019-04-22T02:02:14.376Z,1007.97
2019-04-22T02:02:43.975Z,1007.95
2019-04-22T02:03:17.630Z,1007.93
2019-04-22T02:03:50.525Z,1007.96
2019-04-22T02:04:38.216Z,1007.93
2019-04-22T02:05:35.742Z,1007.94
2019-04-22T02:06:23.366Z,1007.92
2019-04-22T02:07:29.370Z,1007.96
2019-04-22T02:08:09.649Z,1007.94
2019-04-22T02:08:44.895Z,1007.95
2019-04-22T02:09:17.319Z,1007.93
2019-04-22T02:09:49.318Z,1007.89
2019-04-22T02:10:30.417Z,1007.92
2019-04-22T02:11:01.088Z,1007.93
2019-04-22T02:11:39.006Z,1007.89
2019-04-22T02:12:17.364Z,1007.89
2019-04-22T02:12:48.521Z,1007.91
2019-04-22T02:13:26.808Z,1007.87
2019-04-22T02:13:56.147Z,1007.93
2019-04-22T02:14:32.986Z,1007.88
2019-04-22T02:15:09.177Z,1007.91
2019-04-22T02:15:47.779Z,1007.88
2019-04-22T02:16:23.255Z,1007.89
2019-04-22T02:16:56.754Z,1007.89
2019-04-22T02:17:31.578Z,1007.85
2019-04-22T02:18:12.909Z,1007.86
2019-04-22T02:18:39.381Z,1007.88
2019-04-22T02:19:20.729Z,1007.85
2019-04-22T02:19:53.508Z,1007.85
2019-04-22T02:20:25.150Z,1007.81
2019-04-22T02:21:01.456Z,1007.85
2019-04-22T02:21:38.492Z,1007.85
2019-04-22T02:22:07.310Z,1007.84
2019-04-22T02:23:00.452Z,1007.78
2019-04-22T02:23:54.034Z,1007.81
2019-04-22T02:24:39.614Z,1007.82
2019-04-22T02:25:13.582Z,1007.78
2019-04-22T02:25:51.592Z,1007.82
2019-04-22T02:26:38.305Z,1007.79
2019-04-22T02:27:32.615Z,1007.78
2019-04-22T02:28:07.862Z,1007.79
2019-04-22T02:28:42.738Z,1007.76
2019-04-22T02:29:15.011Z,1007.78
2019-04-22T02:30:43.972Z,1007.75
2019-04-22T02:31:20.859Z,1007.77
2019-04-22T02:31:59.621Z,1007.78
2019-04-22T02:32:31.930Z,1007.74
2019-04-22T02:33:19.903Z,1007.73
2019-04-22T02:34:40.016Z,1007.72
2019-04-22T02:35:31.237Z,1007.72
2019-04-22T02:36:38.205Z,1007.75
2019-04-22T02:36:56.309Z,1007.69
2019-04-22T02:37:46.235Z,1007.67
2019-04-22T02:38:21.499Z,1007.71
2019-04-22T02:39:19.839Z,1007.68
2019-04-22T02:39:58.079Z,1007.69
2019-04-22T02:40:46.105Z,1007.67
2019-04-22T02:41:54.987Z,1007.64
2019-04-22T02:42:13.944Z,1007.61
2019-04-22T02:43:01.264Z,1007.65
2019-04-22T02:44:08.185Z,1007.60
2019-04-22T02:44:35.861Z,1007.59
2019-04-22T02:45:15.339Z,1007.59
2019-04-22T02:46:10.696Z,1007.60
2019-04-22T02:47:14.020Z,1007.56
2019-04-22T02:47:50.258Z,1007.57
2019-04-22T02:49:37.342Z,1007.54
2019-04-22T02:50:16.897Z,1007.51
2019-04-22T02:51:06.224Z,1007.51
2019-04-22T02:51:38.670Z,1007.51
2019-04-22T02:51:59.931Z,1007.47
2019-04-22T02:52:39.405Z,1007.47
2019-04-22T02:53:42.017Z,1007.50
2019-04-22T02:54:38.405Z,1007.46
2019-04-22T02:55:02.100Z,1007.48
2019-04-22T02:55:41.270Z,1007.47
2019-04-22T02:57:31.887Z,1007.44
2019-04-22T02:58:16.858Z,1007.41
2019-04-22T02:58:47.010Z,1007.39
2019-04-22T02:59:09.560Z,1007.45
2019-04-22T02:59:39.778Z,1007.41
2019-04-22T03:00:21.636Z,1007.46
2019-04-22T03:01:01.219Z,1007.41
2019-04-22T03:02:19.033Z,1007.42
2019-04-22T03:03:32.703Z,1007.39
2019-04-22T03:04:24.685Z,1007.37
2019-04-22T03:05:02.630Z,1007.38
2019-04-22T03:06:32.845Z,1007.32
2019-04-22T03:06:38.520Z,1007.38
2019-04-22T03:07:18.727Z,1007.37
2019-04-22T03:08:09.897Z,1007.30
2019-04-22T03:09:40.701Z,1007.32
2019-04-22T03:10:18.943Z,1007.29
2019-04-22T03:11:34.025Z,1007.30
2019-04-22T03:12:21.626Z,1007.31
2019-04-22T03:12:33.192Z,1007.29
2019-04-22T03:13:29.190Z,1007.31
2019-04-22T03:13:55.925Z,1007.31
2019-04-22T03:14:22.700Z,1007.24
2019-04-22T03:15:01.420Z,1007.28
2019-04-22T03:15:41.162Z,1007.24
2019-04-22T03:16:47.053Z,1007.28
2019-04-22T03:18:03.066Z,1007.25
2019-04-22T03:19:14.415Z,1007.26
2019-04-22T03:19:53.588Z,1007.25
2019-04-22T03:20:22.060Z,1007.23
2019-04-22T03:20:58.802Z,1007.20
2019-04-22T03:21:34.326Z,1007.22
2019-04-22T03:22:08.213Z,1007.24
2019-04-22T03:22:53.426Z,1007.24
2019-04-22T03:23:29.659Z,1007.24
2019-04-22T03:24:25.802Z,1007.22
2019-04-22T03:25:32.338Z,1007.25
2019-04-22T03:26:01.130Z,1007.21
2019-04-22T03:26:18.861Z,1007.23
2019-04-22T03:26:55.200Z,1007.22
2019-04-22T03:27:30.090Z,1007.21
2019-04-22T03:27:56.426Z,1007.20
2019-04-22T03:28:51.753Z,1007.21
2019-04-22T03:29:14.942Z,1007.19
2019-04-22T03:29:57.924Z,1007.17
2019-04-22T03:31:06.607Z,1007.19
2019-04-22T03:31:58.957Z,1007.20
2019-04-22T03:32:39.407Z,1007.16
2019-04-22T03:33:09.429Z,1007.17
2019-04-22T03:33:36.195Z,1007.18
2019-04-22T03:34:42.208Z,1007.20
2019-04-22T03:35:45.396Z,1007.12
2019-04-22T03:37:35.719Z,1007.18
2019-04-22T03:38:57.570Z,1007.19
2019-04-22T03:39:27.731Z,1007.17
2019-04-22T03:39:51.303Z,1007.17
2019-04-22T03:41:03.338Z,1007.17
2019-04-22T03:43:48.631Z,1007.13
2019-04-22T03:44:07.828Z,1007.17
2019-04-22T03:45:12.690Z,1007.15
2019-04-22T03:45:30.308Z,1007.13
2019-04-22T03:46:14.799Z,1007.13
2019-04-22T03:47:38.284Z,1007.11
2019-04-22T03:48:05.220Z,1007.11
2019-04-22T03:48:45.432Z,1007.09
2019-04-22T03:49:58.399Z,1007.11
2019-04-22T03:51:08.010Z,1007.12
2019-04-22T03:52:56.151Z,1007.08
2019-04-22T03:53:32.998Z,1007.11
2019-04-22T03:54:26.391Z,1007.07
2019-04-22T03:54:39.561Z,1007.04
2019-04-22T03:56:48.332Z,1007.07
2019-04-22T03:57:36.916Z,1007.05
2019-04-22T03:58:37.300Z,1007.04
2019-04-22T03:59:40.001Z,1007.04
2019-04-22T04:00:08.297Z,1007.05
2019-04-22T04:00:42.976Z,1007.02
2019-04-22T04:01:15.470Z,1007.02
2019-04-22T04:01:48.401Z,1007.05
2019-04-22T04:02:54.195Z,1007.03
2019-04-22T04:04:11.516Z,1007.02
2019-04-22T04:04:35.988Z,1007.02
2019-04-22T04:05:10.778Z,1007.03
2019-04-22T04:06:20.622Z,1007.02
2019-04-22T04:07:12.459Z,1007.03
2019-04-22T04:08:22.430Z,1007.06
2019-04-22T04:09:24.015Z,1007.04
2019-04-22T04:10:40.072Z,1007.06
2019-04-22T04:11:53.950Z,1007.08
2019-04-22T04:12:57.615Z,1007.08
2019-04-22T04:14:09.284Z,1007.05
2019-04-22T04:14:46.480Z,1007.04
2019-04-22T04:15:28.369Z,1007.06
2019-04-22T04:15:34.609Z,1007.03
2019-04-22T04:16:21.787Z,1007.02
2019-04-22T04:17:08.980Z,1007.01
2019-04-22T04:17:39.797Z,1007.01
2019-04-22T04:18:03.334Z,1006.99
2019-04-22T04:18:46.572Z,1007.00
2019-04-22T04:19:27.799Z,1007.00
2019-04-22T04:20:28.572Z,1006.99
2019-04-22T04:22:46.661Z,1006.99
2019-04-22T04:23:04.852Z,1006.98
2019-04-22T04:24:11.178Z,1006.98
2019-04-22T04:25:02.223Z,1007.01
2019-04-22T04:26:42.494Z,1006.98
2019-04-22T04:27:15.221Z,1007.03
2019-04-22T04:28:31.357Z,1006.98
2019-04-22T04:29:36.099Z,1006.98
2019-04-22T04:30:05.630Z,1006.99
2019-04-22T04:30:31.960Z,1006.96
2019-04-22T04:31:22.383Z,1006.95
2019-04-22T04:31:51.285Z,1006.95
2019-04-22T04:32:58.941Z,1006.97
2019-04-22T04:33:36.282Z,1006.93
2019-04-22T04:34:16.962Z,1006.95
2019-04-22T04:35:23.884Z,1006.95
2019-04-22T04:36:28.353Z,1006.92
2019-04-22T04:37:15.001Z,1006.93
2019-04-22T04:37:46.921Z,1006.91
2019-04-22T04:38:08.236Z,1006.98
2019-04-22T04:39:05.749Z,1006.94
2019-04-22T04:39:31.477Z,1006.97
2019-04-22T04:42:53.298Z,1006.95
2019-04-22T04:43:42.013Z,1006.94
2019-04-22T04:44:59.052Z,1006.94
2019-04-22T04:45:38.226Z,1006.95
2019-04-22T04:46:37.660Z,1006.96
2019-04-22T04:47:18.308Z,1006.96
2019-04-22T04:47:48.597Z,1006.94
2019-04-22T04:48:13.666Z,1006.94
2019-04-22T04:49:00.464Z,1006.93
2019-04-22T04:49:25.941Z,1006.93
2019-04-22T04:52:27.590Z,1006.97
2019-04-22T04:53:41.487Z,1006.95
2019-04-22T04:54:19.081Z,1006.94
2019-04-22T04:55:22.138Z,1006.94
2019-04-22T04:55:51.780Z,1006.93
2019-04-22T04:56:36.429Z,1006.99
2019-04-22T04:56:56.001Z,1006.93
2019-04-22T05:00:52.378Z,1006.97
2019-04-22T05:01:14.879Z,1006.99
2019-04-22T05:02:35.897Z,1006.98
2019-04-22T05:03:39.974Z,1006.94
2019-04-22T05:05:00.188Z,1006.97
2019-04-22T05:05:20.633Z,1006.96
2019-04-22T05:06:05.975Z,1006.98
2019-04-22T05:06:38.743Z,1006.96
2019-04-22T05:07:09.353Z,1006.93
2019-04-22T05:07:44.247Z,1006.95
2019-04-22T05:10:26.426Z,1006.95
2019-04-22T05:12:39.594Z,1006.93
2019-04-22T05:13:39.630Z,1006.93
2019-04-22T05:14:09.524Z,1006.95
2019-04-22T05:14:36.926Z,1006.92
2019-04-22T05:16:10.044Z,1006.94
2019-04-22T05:17:02.380Z,1006.91
2019-04-22T05:18:13.973Z,1006.93
2019-04-22T05:18:50.621Z,1006.95
2019-04-22T05:19:26.115Z,1006.91
2019-04-22T05:20:05.133Z,1006.92
2019-04-22T05:20:43.065Z,1006.89
2019-04-22T05:21:12.297Z,1006.88
2019-04-22T05:21:50.185Z,1006.89
2019-04-22T05:22:20.776Z,1006.89
2019-04-22T05:22:51.363Z,1006.89
2019-04-22T05:23:37.240Z,1006.86
2019-04-22T05:24:09.603Z,1006.92
2019-04-22T05:24:43.977Z,1006.88
2019-04-22T05:25:26.714Z,1006.90
2019-04-22T05:25:51.381Z,1006.88
2019-04-22T05:27:05.779Z,1006.90
2019-04-22T05:27:39.718Z,1006.87
2019-04-22T05:28:11.824Z,1006.85
2019-04-22T05:28:51.660Z,1006.90
2019-04-22T05:29:35.114Z,1006.85
2019-04-22T05:30:22.927Z,1006.89
2019-04-22T05:30:32.399Z,1006.87
2019-04-22T05:31:16.083Z,1006.87
2019-04-22T05:31:54.241Z,1006.84
2019-04-22T05:32:28.795Z,1006.89
2019-04-22T05:32:57.078Z,1006.90
2019-04-22T05:33:37.727Z,1006.88
2019-04-22T05:34:08.507Z,1006.90
2019-04-22T05:34:56.715Z,1006.88
2019-04-22T05:35:20.630Z,1006.87
2019-04-22T05:35:53.692Z,1006.93
2019-04-22T05:36:29.641Z,1006.88
2019-04-22T05:37:08.704Z,1006.87
2019-04-22T05:37:44.572Z,1006.86
2019-04-22T05:38:17.477Z,1006.89
2019-04-22T05:38:55.244Z,1006.87
2019-04-22T05:39:52.984Z,1006.87
2019-04-22T05:40:24.172Z,1006.85
2019-04-22T05:40:56.067Z,1006.88
2019-04-22T05:41:35.324Z,1006.87
2019-04-22T05:42:08.461Z,1006.89
2019-04-22T05:42:44.237Z,1006.91
2019-04-22T05:43:29.461Z,1006.88
2019-04-22T05:43:58.151Z,1006.87
2019-04-22T05:44:32.622Z,1006.88
2019-04-22T05:45:05.526Z,1006.86
2019-04-22T05:45:37.258Z,1006.84
2019-04-22T05:46:20.610Z,1006.84
2019-04-22T05:46:47.485Z,1006.86
2019-04-22T05:47:26.071Z,1006.86
2019-04-22T05:47:57.666Z,1006.85
2019-04-22T05:48:39.809Z,1006.88
2019-04-22T05:49:14.543Z,1006.86
2019-04-22T05:49:41.705Z,1006.83
2019-04-22T05:50:21.897Z,1006.88
2019-04-22T05:50:59.846Z,1006.86
2019-04-22T05:51:37.050Z,1006.84
2019-04-22T05:52:09.672Z,1006.84
2019-04-22T05:52:40.469Z,1006.87
2019-04-22T05:53:14.853Z,1006.87
2019-04-22T05:53:57.473Z,1006.85
2019-04-22T05:54:32.997Z,1006.83
2019-04-22T05:55:08.481Z,1006.83
2019-04-22T05:55:41.581Z,1006.82
2019-04-22T05:56:22.136Z,1006.84
2019-04-22T05:56:42.902Z,1006.82
2019-04-22T05:57:26.602Z,1006.78
2019-04-22T05:58:02.814Z,1006.79
2019-04-22T05:58:39.744Z,1006.78
2019-04-22T05:59:10.319Z,1006.77
2019-04-22T05:59:56.975Z,1006.75
2019-04-22T06:00:35.505Z,1006.81
2019-04-22T06:01:18.742Z,1006.78
2019-04-22T06:01:51.527Z,1006.79
2019-04-22T06:02:14.746Z,1006.79
2019-04-22T06:03:07.196Z,1006.80
2019-04-22T06:03:15.286Z,1006.80
2019-04-22T06:04:04.240Z,1006.78
2019-04-22T06:04:29.435Z,1006.74
2019-04-22T06:05:10.161Z,1006.78
2019-04-22T06:07:28.715Z,1006.76
2019-04-22T06:08:03.991Z,1006.77
2019-04-22T06:08:42.405Z,1006.75
2019-04-22T06:09:19.165Z,1006.73
2019-04-22T06:09:49.537Z,1006.75
2019-04-22T06:10:29.294Z,1006.73
2019-04-22T06:11:05.677Z,1006.73
2019-04-22T06:11:33.974Z,1006.76
2019-04-22T06:12:04.934Z,1006.76
2019-04-22T06:12:38.895Z,1006.79
2019-04-22T06:13:18.033Z,1006.80
2019-04-22T06:13:51.680Z,1006.78
2019-04-22T06:14:31.355Z,1006.77
2019-04-22T06:15:07.934Z,1006.86
2019-04-22T06:15:37.544Z,1006.79
2019-04-22T06:16:17.963Z,1006.79
2019-04-22T06:16:53.545Z,1006.84
2019-04-22T06:17:32.194Z,1006.83
2019-04-22T06:18:14.780Z,1006.79
2019-04-22T06:18:44.581Z,1006.83
2019-04-22T06:19:14.042Z,1006.82
2019-04-22T06:19:54.152Z,1006.84
2019-04-22T06:20:28.586Z,1006.75
2019-04-22T06:21:08.962Z,1006.84
2019-04-22T06:21:38.385Z,1006.82
2019-04-22T06:22:22.789Z,1006.87
2019-04-22T06:22:50.397Z,1006.85
2019-04-22T06:23:25.927Z,1006.84
2019-04-22T06:24:06.341Z,1006.85
2019-04-22T06:24:32.476Z,1006.83
2019-04-22T06:25:17.799Z,1006.87
2019-04-22T06:27:04.578Z,1006.90
2019-04-22T06:28:13.540Z,1006.90
2019-04-22T06:28:48.208Z,1006.89
2019-04-22T06:29:46.323Z,1006.92
2019-04-22T06:30:28.406Z,1006.84
2019-04-22T06:31:02.589Z,1006.87
2019-04-22T06:31:50.217Z,1006.84
2019-04-22T06:32:46.952Z,1006.91
2019-04-22T06:33:27.329Z,1006.88
2019-04-22T06:34:06.029Z,1006.87
2019-04-22T06:34:35.838Z,1006.86
2019-04-22T06:35:19.816Z,1006.87
2019-04-22T06:36:26.308Z,1006.89
2019-04-22T06:36:59.855Z,1006.86
2019-04-22T06:37:42.002Z,1006.91
2019-04-22T06:38:28.204Z,1006.90
2019-04-22T06:38:39.237Z,1006.87
2019-04-22T06:39:26.703Z,1006.87
2019-04-22T06:39:57.358Z,1006.87
2019-04-22T06:40:43.983Z,1006.84
2019-04-22T06:41:09.349Z,1006.88
2019-04-22T06:41:41.478Z,1006.90
2019-04-22T06:42:13.410Z,1006.86
2019-04-22T06:42:51.973Z,1006.85
2019-04-22T06:43:25.219Z,1006.87
2019-04-22T06:44:04.759Z,1006.86
2019-04-22T06:44:36.537Z,1006.85
2019-04-22T06:45:15.241Z,1006.88
2019-04-22T06:45:43.607Z,1006.89
2019-04-22T06:46:22.420Z,1006.81
2019-04-22T06:46:56.334Z,1006.88
2019-04-22T06:47:43.860Z,1006.85
2019-04-22T06:48:46.020Z,1006.84
2019-04-22T06:49:27.348Z,1006.89
2019-04-22T06:49:55.534Z,1006.85
2019-04-22T06:50:33.945Z,1006.84
2019-04-22T06:51:00.126Z,1006.90
2019-04-22T06:51:37.637Z,1006.84
2019-04-22T06:52:54.576Z,1006.83
2019-04-22T06:53:26.657Z,1006.87
2019-04-22T06:54:03.958Z,1006.85
2019-04-22T06:54:54.241Z,1006.84
2019-04-22T06:55:16.695Z,1006.84
2019-04-22T06:55:47.974Z,1006.86
2019-04-22T06:56:22.244Z,1006.85
2019-04-22T06:57:02.487Z,1006.83
2019-04-22T06:57:34.695Z,1006.87
2019-04-22T06:58:10.578Z,1006.82
2019-04-22T06:58:46.324Z,1006.83
2019-04-22T06:59:18.306Z,1006.89
2019-04-22T07:00:00.348Z,1006.87
2019-04-22T07:00:32.116Z,1006.84
2019-04-22T07:01:13.821Z,1006.86
2019-04-22T07:01:43.213Z,1006.81
2019-04-22T07:02:18.084Z,1006.83
2019-04-22T07:03:10.226Z,1006.84
2019-04-22T07:04:01.491Z,1006.83
2019-04-22T07:04:33.638Z,1006.91
2019-04-22T07:05:17.366Z,1006.91
2019-04-22T07:05:46.408Z,1006.93
2019-04-22T07:06:31.695Z,1006.96
2019-04-22T07:07:04.688Z,1006.94
2019-04-22T07:07:34.539Z,1006.92
2019-04-22T07:08:30.754Z,1006.93
2019-04-22T07:09:54.297Z,1006.93
2019-04-22T07:11:05.790Z,1006.94
2019-04-22T07:11:36.046Z,1006.92
2019-04-22T07:12:20.831Z,1006.95
2019-04-22T07:12:48.588Z,1006.88
2019-04-22T07:13:27.421Z,1006.91
2019-04-22T07:14:18.102Z,1006.89
2019-04-22T07:14:35.506Z,1006.87
2019-04-22T07:15:23.250Z,1006.89
2019-04-22T07:15:51.773Z,1006.88
2019-04-22T07:16:26.253Z,1006.89
2019-04-22T07:16:58.864Z,1006.90
2019-04-22T07:17:52.248Z,1006.92
2019-04-22T07:18:26.158Z,1006.86
2019-04-22T07:19:02.425Z,1006.91
2019-04-22T07:19:20.649Z,1006.89
2019-04-22T07:19:56.055Z,1006.83
2019-04-22T07:21:06.530Z,1006.84
2019-04-22T07:21:43.999Z,1006.83
2019-04-22T07:22:59.909Z,1006.86
2019-04-22T07:24:24.143Z,1006.86
2019-04-22T07:25:32.905Z,1006.85
2019-04-22T07:26:04.341Z,1006.91
2019-04-22T07:26:31.920Z,1006.93
2019-04-22T07:27:04.714Z,1006.88
2019-04-22T07:27:34.675Z,1006.93
2019-04-22T07:28:11.250Z,1006.98
2019-04-22T07:28:47.278Z,1006.92
2019-04-22T07:29:42.792Z,1006.95
2019-04-22T07:30:03.571Z,1006.88
2019-04-22T07:30:35.342Z,1006.92
2019-04-22T07:31:12.994Z,1006.88
2019-04-22T07:31:51.009Z,1006.96
2019-04-22T07:32:29.359Z,1006.95
2019-04-22T07:33:34.159Z,1006.84
2019-04-22T07:34:14.567Z,1006.85
2019-04-22T07:34:40.248Z,1006.86
2019-04-22T07:35:25.315Z,1006.89
2019-04-22T07:36:19.106Z,1006.83
2019-04-22T07:37:15.769Z,1006.84
2019-04-22T07:37:51.570Z,1006.83
2019-04-22T07:38:17.526Z,1006.84
2019-04-22T07:38:42.837Z,1006.82
2019-04-22T07:39:27.522Z,1006.81
2019-04-22T07:39:56.570Z,1006.85
2019-04-22T07:40:38.963Z,1006.85
2019-04-22T07:41:06.993Z,1006.85
2019-04-22T07:41:47.584Z,1006.79
2019-04-22T07:42:24.486Z,1006.89
2019-04-22T07:43:02.538Z,1006.80
2019-04-22T07:43:39.748Z,1006.82
2019-04-22T07:44:13.427Z,1006.84
2019-04-22T07:44:45.105Z,1006.91
2019-04-22T07:45:17.835Z,1006.81
2019-04-22T07:45:56.570Z,1006.83
2019-04-22T07:46:28.669Z,1006.82
2019-04-22T07:47:38.382Z,1006.83
2019-04-22T07:48:53.110Z,1006.87
2019-04-22T07:49:26.834Z,1006.84
2019-04-22T07:50:03.928Z,1006.88
2019-04-22T07:51:46.695Z,1006.85
2019-04-22T07:52:24.650Z,1006.85
2019-04-22T07:52:51.637Z,1006.88
2019-04-22T07:53:28.913Z,1006.88
2019-04-22T07:54:06.195Z,1006.85
2019-04-22T07:54:46.782Z,1006.86
2019-04-22T07:55:12.210Z,1006.85
2019-04-22T07:55:52.243Z,1006.85
2019-04-22T07:56:29.255Z,1006.88
2019-04-22T07:57:08.680Z,1006.87
2019-04-22T07:57:39.595Z,1006.89
2019-04-22T07:58:21.132Z,1006.86
2019-04-22T07:58:48.605Z,1006.79
2019-04-22T07:59:31.699Z,1006.85
2019-04-22T08:00:04.079Z,1006.79
2019-04-22T08:01:02.069Z,1006.82
2019-04-22T08:01:14.109Z,1006.85
2019-04-22T08:01:42.299Z,1006.79
2019-04-22T08:02:26.630Z,1006.80
2019-04-22T08:02:59.714Z,1006.78
2019-04-22T08:03:38.154Z,1006.82
2019-04-22T08:04:15.970Z,1006.82
2019-04-22T08:05:18.911Z,1006.78
2019-04-22T08:06:12.032Z,1006.82
2019-04-22T08:06:34.088Z,1006.78
2019-04-22T08:07:12.883Z,1006.76
2019-04-22T08:07:46.756Z,1006.80
2019-04-22T08:08:20.071Z,1006.76
2019-04-22T08:08:56.623Z,1006.75
2019-04-22T08:09:27.646Z,1006.80
2019-04-22T08:10:09.195Z,1006.78
2019-04-22T08:10:46.808Z,1006.74
2019-04-22T08:11:31.052Z,1006.72
2019-04-22T08:11:53.776Z,1006.78
2019-04-22T08:12:26.795Z,1006.78
2019-04-22T08:12:58.694Z,1006.75
2019-04-22T08:13:34.229Z,1006.72
2019-04-22T08:14:10.828Z,1006.74
2019-04-22T08:14:50.094Z,1006.70
2019-04-22T08:15:19.552Z,1006.77
2019-04-22T08:15:58.075Z,1006.76
2019-04-22T08:16:29.551Z,1006.77
2019-04-22T08:17:31.081Z,1006.71
2019-04-22T08:18:17.869Z,1006.74
2019-04-22T08:18:57.304Z,1006.79
2019-04-22T08:19:28.119Z,1006.78
2019-04-22T08:20:09.221Z,1006.80
2019-04-22T08:20:45.793Z,1006.80
2019-04-22T08:21:12.384Z,1006.76
2019-04-22T08:21:52.182Z,1006.79
2019-04-22T08:22:24.034Z,1006.82
2019-04-22T08:23:04.806Z,1006.76
2019-04-22T08:23:43.295Z,1006.78
2019-04-22T08:24:28.587Z,1006.77
2019-04-22T08:24:51.347Z,1006.78
2019-04-22T08:25:24.836Z,1006.74
2019-04-22T08:25:55.759Z,1006.72
2019-04-22T08:26:32.284Z,1006.72
2019-04-22T08:27:11.954Z,1006.76
2019-04-22T08:27:46.783Z,1006.72
2019-04-22T08:28:26.286Z,1006.80
2019-04-22T08:29:02.315Z,1006.81
2019-04-22T08:29:37.265Z,1006.76
2019-04-22T08:31:20.354Z,1006.71